Terminal Aerodrome Forecast
Issued by NWS

Home | Current Version | Previous Version | Text Only | Print | Product List | Glossary On
Versions: 1 2 3 4 5 6 7 8 9 10 11 12 13 14 15 16 17 18 19 20 21 22 23 24 25 26 27 28 29 30 31
000
FTUS42 KGSP 011125
TAFHKY
TAF
KHKY 011125Z 0112/0212 02003KT P6SM -FZRA BKN019 OVC050
      TEMPO 0112/0114 00000KT 4SM -FZRA BR SCT019 OVC050
     FM011400 01003KT 3SM -RA BR OVC021
     FM012000 22003KT P6SM OVC013
     FM020000 20003KT P6SM OVC003=

USA.gov is the U.S. government's official web portal to all federal, state and local government web resources and services.